createdAt,value
2023-03-13T00:00:49.731Z,95915.56
2023-03-13T00:01:51.554Z,95945.31
2023-03-13T00:02:53.320Z,95786.91
2023-03-13T00:03:55.160Z,95883.25
2023-03-13T00:04:56.917Z,95751.91
2023-03-13T00:05:59.215Z,95942.63
2023-03-13T00:07:01.052Z,95904.75
2023-03-13T00:08:02.808Z,95909.50
2023-03-13T00:09:06.813Z,95932.19
2023-03-13T00:10:08.932Z,95965.50
2023-03-13T00:11:12.868Z,95918.50
2023-03-13T00:12:14.571Z,95932.00
2023-03-13T00:13:16.299Z,95931.97
2023-03-13T00:14:18.068Z,95950.78
2023-03-13T00:15:19.826Z,95982.56
2023-03-13T00:16:21.652Z,95950.28
2023-03-13T00:17:23.788Z,95947.94
2023-03-13T00:18:25.521Z,95912.34
2023-03-13T00:19:27.271Z,95958.97
2023-03-13T00:20:29.993Z,95980.91
2023-03-13T00:21:31.889Z,95913.41
2023-03-13T00:22:33.718Z,95954.59
2023-03-13T00:23:37.803Z,95963.81
2023-03-13T00:24:39.613Z,95978.69
2023-03-13T00:25:41.386Z,95944.69
2023-03-13T00:26:43.085Z,95967.78
2023-03-13T00:27:44.895Z,95958.31
2023-03-13T00:28:47.116Z,95933.25
2023-03-13T00:29:48.865Z,95902.13
2023-03-13T00:30:50.793Z,95943.59
2023-03-13T00:31:52.610Z,95947.56
2023-03-13T00:32:54.429Z,95959.22
2023-03-13T00:34:00.072Z,95941.69
2023-03-13T00:35:01.803Z,95900.50
2023-03-13T00:36:09.359Z,95934.00
2023-03-13T00:37:11.145Z,95763.75
2023-03-13T00:38:12.899Z,95785.47
2023-03-13T00:39:14.598Z,95955.81
2023-03-13T00:40:16.409Z,95936.34
2023-03-13T00:41:20.598Z,95958.56
2023-03-13T00:42:22.775Z,95984.13
2023-03-13T00:43:24.697Z,95900.13
2023-03-13T00:44:26.459Z,95944.25
2023-03-13T00:45:28.209Z,95944.91
2023-03-13T00:46:30.788Z,95960.56
2023-03-13T00:47:32.607Z,95794.22
2023-03-13T00:48:34.752Z,95943.06
2023-03-13T00:49:36.522Z,95938.00
2023-03-13T00:50:38.265Z,95929.38
2023-03-13T00:51:40.024Z,95959.19
2023-03-13T00:52:41.762Z,95885.72
2023-03-13T00:53:44.218Z,95957.06
2023-03-13T00:54:46.115Z,95872.53
2023-03-13T00:55:56.074Z,95948.09
2023-03-13T00:56:57.789Z,95791.03
2023-03-13T00:57:59.536Z,95803.88
2023-03-13T00:59:01.458Z,95954.66
2023-03-13T01:00:05.137Z,95940.19
2023-03-13T01:01:08.174Z,95824.97
2023-03-13T01:02:10.162Z,95934.41
2023-03-13T01:03:12.182Z,95941.50
2023-03-13T01:04:13.985Z,95796.13
2023-03-13T01:05:15.829Z,95927.00
2023-03-13T01:06:20.918Z,95892.63
2023-03-13T01:07:22.718Z,95946.22
2023-03-13T01:08:24.737Z,95926.59
2023-03-13T01:09:26.476Z,95763.22
2023-03-13T01:10:28.253Z,95923.41
2023-03-13T01:11:34.092Z,95943.72
2023-03-13T01:12:35.883Z,95941.22
2023-03-13T01:13:38.362Z,95939.09
2023-03-13T01:14:40.229Z,95951.47
2023-03-13T01:15:42.213Z,95944.91
2023-03-13T01:16:45.111Z,95922.41
2023-03-13T01:17:46.849Z,95935.50
2023-03-13T01:18:51.450Z,95944.53
2023-03-13T01:19:56.449Z,95931.88
2023-03-13T01:20:58.229Z,95973.19
2023-03-13T01:21:59.980Z,95928.72
2023-03-13T01:23:01.668Z,95888.06
2023-03-13T01:24:04.272Z,95773.28
2023-03-13T01:25:06.615Z,95958.69
2023-03-13T01:26:09.270Z,95860.94
2023-03-13T01:27:10.995Z,95956.09
2023-03-13T01:28:12.767Z,95940.13
2023-03-13T01:29:14.764Z,95962.94
2023-03-13T01:30:16.812Z,95927.41
2023-03-13T01:31:27.630Z,95988.50
2023-03-13T01:32:29.633Z,95959.66
2023-03-13T01:33:31.429Z,96007.47
2023-03-13T01:34:33.183Z,96006.38
2023-03-13T01:35:34.958Z,95976.72
2023-03-13T01:36:38.158Z,95957.91
2023-03-13T01:37:39.885Z,95926.63
2023-03-13T01:38:41.847Z,95977.09
2023-03-13T01:39:43.551Z,95964.56
2023-03-13T01:40:48.361Z,95921.06
2023-03-13T01:41:50.111Z,95966.13
2023-03-13T01:42:53.975Z,95963.34
2023-03-13T01:43:56.610Z,95956.84
2023-03-13T01:44:58.355Z,95948.31
2023-03-13T01:46:08.825Z,95789.56
2023-03-13T01:47:10.706Z,95967.84
2023-03-13T01:48:12.502Z,95978.44
2023-03-13T01:49:34.749Z,95967.88
2023-03-13T01:50:36.528Z,95978.84
2023-03-13T01:52:02.908Z,95969.41
2023-03-13T01:53:04.662Z,95856.34
2023-03-13T01:54:06.570Z,96001.22
2023-03-13T01:55:17.265Z,95960.09
2023-03-13T01:56:23.821Z,95914.94
2023-03-13T01:57:35.575Z,95965.47
2023-03-13T01:58:38.293Z,95921.00
2023-03-13T02:00:06.127Z,95954.50
2023-03-13T02:01:08.392Z,95820.38
2023-03-13T02:02:11.187Z,95801.91
2023-03-13T02:03:17.819Z,95840.97
2023-03-13T02:04:22.227Z,95969.59
2023-03-13T02:05:27.583Z,95958.13
2023-03-13T02:06:33.369Z,95787.44
2023-03-13T02:07:47.110Z,95955.78
2023-03-13T02:09:00.010Z,95967.63
2023-03-13T02:10:02.179Z,95959.09
2023-03-13T02:11:36.827Z,95929.25
2023-03-13T02:12:41.043Z,95971.56
2023-03-13T02:13:43.880Z,95986.31
2023-03-13T02:14:47.087Z,95839.00
2023-03-13T02:15:49.440Z,95976.25
2023-03-13T02:16:52.821Z,96016.34
2023-03-13T02:17:56.604Z,95972.06
2023-03-13T02:18:58.487Z,95955.31
2023-03-13T02:20:00.268Z,95963.13
2023-03-13T02:21:19.428Z,96009.34
2023-03-13T02:22:43.459Z,95981.81
2023-03-13T02:23:57.451Z,95857.91
2023-03-13T02:25:20.347Z,95994.13
2023-03-13T02:26:22.322Z,95992.56
2023-03-13T02:27:24.773Z,95975.88
2023-03-13T02:30:28.568Z,96003.41
2023-03-13T02:31:30.752Z,95798.41
2023-03-13T02:32:33.282Z,96025.84
2023-03-13T02:33:40.012Z,95996.09
2023-03-13T02:34:45.215Z,95514.50
2023-03-13T02:35:48.688Z,95914.25
2023-03-13T02:36:51.567Z,96048.19
2023-03-13T02:38:01.338Z,95884.09
2023-03-13T02:39:06.407Z,96008.59
2023-03-13T02:40:11.719Z,96052.09
2023-03-13T02:41:33.627Z,96020.75
2023-03-13T02:42:38.664Z,96031.75
2023-03-13T02:43:40.423Z,96021.94
2023-03-13T02:44:42.859Z,96017.22
2023-03-13T02:46:10.754Z,95494.72
2023-03-13T02:47:13.019Z,96018.38
2023-03-13T02:48:14.810Z,96036.81
2023-03-13T02:49:28.461Z,96037.63
2023-03-13T02:50:31.167Z,96038.38
2023-03-13T02:51:44.993Z,96026.63
2023-03-13T02:52:55.572Z,96032.50
2023-03-13T02:54:00.977Z,96034.88
2023-03-13T02:55:08.264Z,95994.47
2023-03-13T02:56:12.646Z,96016.47
2023-03-13T02:57:14.753Z,95998.81
2023-03-13T02:58:16.525Z,95938.50
2023-03-13T02:59:18.242Z,96019.91
2023-03-13T03:00:20.335Z,95964.72
2023-03-13T03:01:22.147Z,96040.28
2023-03-13T03:02:24.162Z,95996.00
2023-03-13T03:03:25.988Z,96040.69
2023-03-13T03:04:27.945Z,95927.50
2023-03-13T03:05:29.881Z,95906.78
2023-03-13T03:06:31.864Z,95991.72
2023-03-13T03:07:33.768Z,96024.25
2023-03-13T03:08:36.282Z,96034.81
2023-03-13T03:09:38.170Z,96040.28
2023-03-13T03:10:39.891Z,95919.31
2023-03-13T03:11:42.276Z,96048.97
2023-03-13T03:12:44.197Z,96052.53
2023-03-13T03:13:46.508Z,96052.53
2023-03-13T03:14:48.254Z,96092.13
2023-03-13T03:15:50.060Z,96056.06
2023-03-13T03:16:52.061Z,96070.16
2023-03-13T03:17:53.867Z,96088.16
2023-03-13T03:18:55.820Z,96073.28
2023-03-13T03:19:57.605Z,96038.00
2023-03-13T03:20:59.361Z,96076.81
2023-03-13T03:22:01.365Z,96073.66
2023-03-13T03:23:03.232Z,96039.97
2023-03-13T03:24:05.240Z,96079.97
2023-03-13T03:25:08.367Z,96067.78
2023-03-13T03:26:10.381Z,96060.34
2023-03-13T03:27:12.173Z,96039.94
2023-03-13T03:28:13.867Z,96066.63
2023-03-13T03:29:15.934Z,96089.31
2023-03-13T03:30:18.985Z,96063.09
2023-03-13T03:31:20.830Z,96053.69
2023-03-13T03:32:22.622Z,96053.69
2023-03-13T03:33:24.783Z,96067.34
2023-03-13T03:34:26.596Z,96090.50
2023-03-13T03:35:28.312Z,96077.19
2023-03-13T03:36:30.217Z,96084.22
2023-03-13T03:37:32.068Z,96076.81
2023-03-13T03:38:34.539Z,95944.00
2023-03-13T03:39:36.519Z,96075.25
2023-03-13T03:40:38.256Z,96076.41
2023-03-13T03:41:39.979Z,96084.66
2023-03-13T03:42:41.918Z,96072.50
2023-03-13T03:43:43.791Z,95960.44
2023-03-13T03:44:45.647Z,95981.59
2023-03-13T03:45:47.484Z,96068.59
2023-03-13T03:46:49.276Z,96085.03
2023-03-13T03:47:54.229Z,96134.47
2023-03-13T03:48:56.011Z,96077.19
2023-03-13T03:49:57.854Z,96079.56
2023-03-13T03:50:59.652Z,96138.78
2023-03-13T03:52:01.438Z,95947.94
2023-03-13T03:53:03.262Z,96094.06
2023-03-13T03:54:05.079Z,96115.25
2023-03-13T03:55:07.125Z,96108.97
2023-03-13T03:56:09.024Z,96088.19
2023-03-13T03:57:10.832Z,96090.53
2023-03-13T03:58:12.744Z,96114.44
2023-03-13T03:59:14.516Z,96100.69
2023-03-13T04:00:16.588Z,96099.53
2023-03-13T04:01:18.357Z,96036.41
2023-03-13T04:02:20.204Z,96106.97
2023-03-13T04:03:21.988Z,96131.66
2023-03-13T04:04:23.766Z,96114.44
2023-03-13T04:05:25.582Z,96107.78
2023-03-13T04:06:27.351Z,96130.13
2023-03-13T04:07:29.143Z,96134.03
2023-03-13T04:08:37.145Z,96048.91
2023-03-13T04:09:38.857Z,96098.72
2023-03-13T04:11:08.485Z,96137.13
2023-03-13T04:12:10.252Z,96129.66
2023-03-13T04:13:11.942Z,96148.13
2023-03-13T04:14:13.697Z,96001.47
2023-03-13T04:15:15.497Z,96142.97
2023-03-13T04:16:17.470Z,96156.75
2023-03-13T04:17:19.312Z,96150.47
2023-03-13T04:18:21.098Z,96140.28
2023-03-13T04:19:22.945Z,96124.94
2023-03-13T04:20:26.103Z,96130.47
2023-03-13T04:21:27.864Z,96111.31
2023-03-13T04:22:29.673Z,96138.72
2023-03-13T04:23:31.372Z,96145.03
2023-03-13T04:24:33.223Z,96105.78
2023-03-13T04:25:34.908Z,96143.06
2023-03-13T04:26:36.649Z,96181.88
2023-03-13T04:27:38.630Z,96148.16
2023-03-13T04:28:40.448Z,96122.28
2023-03-13T04:29:51.304Z,95996.78
2023-03-13T04:30:53.087Z,96163.06
2023-03-13T04:31:55.045Z,96150.13
2023-03-13T04:33:14.482Z,96099.91
2023-03-13T04:34:16.243Z,96141.47
2023-03-13T04:35:18.180Z,96015.59
2023-03-13T04:36:19.953Z,95994.06
2023-03-13T04:37:21.730Z,95997.16
2023-03-13T04:38:23.647Z,96185.41
2023-03-13T04:39:44.890Z,96180.69
2023-03-13T04:40:47.241Z,96160.31
2023-03-13T04:41:49.027Z,96125.00
2023-03-13T04:42:50.984Z,96193.59
2023-03-13T04:43:54.198Z,96178.34
2023-03-13T04:44:55.898Z,96151.22
2023-03-13T04:45:57.837Z,96194.34
2023-03-13T04:46:59.664Z,96188.78
2023-03-13T04:48:01.477Z,96190.38
2023-03-13T04:49:03.268Z,96084.00
2023-03-13T04:51:15.432Z,96166.41
2023-03-13T04:52:17.361Z,96197.78
2023-03-13T04:53:19.229Z,96165.44
2023-03-13T04:54:21.382Z,96158.72
2023-03-13T04:55:23.168Z,96075.44
2023-03-13T04:56:42.280Z,96177.91
2023-03-13T04:57:45.248Z,96192.44
2023-03-13T04:58:47.115Z,96176.03
2023-03-13T04:59:48.985Z,96209.78
2023-03-13T05:00:51.076Z,96189.06
2023-03-13T05:03:11.490Z,96190.63
2023-03-13T05:04:13.336Z,96196.19
2023-03-13T05:05:15.341Z,96184.38
2023-03-13T05:06:17.295Z,96197.72
2023-03-13T05:09:40.711Z,96187.25
2023-03-13T05:10:43.724Z,96208.19
2023-03-13T05:11:45.468Z,96207.44
2023-03-13T05:12:47.167Z,96191.69
2023-03-13T05:13:48.968Z,96206.72
2023-03-13T05:14:50.868Z,96199.66
2023-03-13T05:15:52.647Z,96209.84
2023-03-13T05:16:54.402Z,96223.94
2023-03-13T05:17:56.282Z,96219.56
2023-03-13T05:18:58.032Z,96213.69
2023-03-13T05:19:59.826Z,96225.09
2023-03-13T05:21:02.195Z,96223.56
2023-03-13T05:22:04.445Z,96194.56
2023-03-13T05:23:06.208Z,96222.13
2023-03-13T05:24:08.260Z,96213.56
2023-03-13T05:25:10.414Z,96226.88
2023-03-13T05:26:12.316Z,96186.06
2023-03-13T05:27:14.513Z,96216.34
2023-03-13T05:28:16.325Z,96224.56
2023-03-13T05:29:18.151Z,96209.28
2023-03-13T05:30:20.051Z,96206.16
2023-03-13T05:31:22.228Z,96163.00
2023-03-13T05:32:24.025Z,96154.00
2023-03-13T05:34:02.145Z,96217.22
2023-03-13T05:35:04.107Z,96173.66
2023-03-13T05:36:06.358Z,96054.47
2023-03-13T05:37:08.229Z,96213.69
2023-03-13T05:38:10.226Z,96044.66
2023-03-13T05:39:11.985Z,96208.19
2023-03-13T05:40:14.797Z,96186.19
2023-03-13T05:41:16.535Z,96267.03
2023-03-13T05:42:18.347Z,96232.09
2023-03-13T05:43:20.129Z,96259.59
2023-03-13T05:44:21.992Z,96176.78
2023-03-13T05:45:23.774Z,96212.47
2023-03-13T05:46:25.582Z,96243.84
2023-03-13T05:47:27.612Z,96202.69
2023-03-13T05:48:29.343Z,96261.13
2023-03-13T05:49:31.252Z,96255.22
2023-03-13T05:50:33.007Z,96134.03
2023-03-13T05:51:34.895Z,96233.63
2023-03-13T05:52:36.866Z,96258.38
2023-03-13T05:53:39.173Z,96255.63
2023-03-13T05:54:41.185Z,96219.09
2023-03-13T05:55:43.871Z,96136.69
2023-03-13T05:56:45.859Z,96222.13
2023-03-13T05:57:49.053Z,96241.72
2023-03-13T05:58:50.944Z,96168.78
2023-03-13T05:59:52.848Z,95972.50
2023-03-13T06:00:54.580Z,96244.72
2023-03-13T06:01:56.385Z,96233.00
2023-03-13T06:02:58.262Z,96231.34
2023-03-13T06:04:00.209Z,96236.84
2023-03-13T06:05:02.082Z,96221.06
2023-03-13T06:06:03.996Z,96121.16
2023-03-13T06:07:05.760Z,96062.06
2023-03-13T06:08:07.668Z,96232.38
2023-03-13T06:09:09.870Z,96250.78
2023-03-13T06:10:12.537Z,96216.41
2023-03-13T06:11:14.320Z,96253.31
2023-03-13T06:12:16.172Z,96262.69
2023-03-13T06:13:20.303Z,96255.53
2023-03-13T06:14:22.698Z,96238.66
2023-03-13T06:15:24.751Z,96255.94
2023-03-13T06:16:26.630Z,96258.28
2023-03-13T06:17:29.065Z,96218.22
2023-03-13T06:28:41.888Z,96224.25
2023-03-13T06:29:43.859Z,96206.94
2023-03-13T06:30:46.275Z,96229.63
2023-03-13T06:31:48.229Z,96238.13
2023-03-13T06:32:50.605Z,96227.94
2023-03-13T06:33:56.878Z,95805.31
2023-03-13T06:34:59.209Z,96247.50
2023-03-13T06:36:02.636Z,96236.50
2023-03-13T06:37:05.130Z,96237.19
2023-03-13T06:38:06.987Z,96178.34
2023-03-13T06:39:09.724Z,96256.22
2023-03-13T06:40:12.431Z,96259.28
2023-03-13T06:41:14.886Z,96252.06
2023-03-13T06:42:17.548Z,96261.09
2023-03-13T06:43:20.201Z,96258.47
2023-03-13T06:44:22.356Z,96203.47
2023-03-13T06:45:24.526Z,96258.88
2023-03-13T06:46:26.954Z,96260.25
2023-03-13T06:48:53.141Z,96140.13
2023-03-13T06:49:55.705Z,96243.66
2023-03-13T06:50:58.347Z,96247.03
2023-03-13T06:52:00.868Z,96221.41
2023-03-13T06:53:03.047Z,96254.91
2023-03-13T06:54:05.400Z,96254.88
2023-03-13T06:55:22.669Z,96254.09
2023-03-13T06:56:25.182Z,96252.22
2023-03-13T06:57:27.457Z,96241.31
2023-03-13T06:58:32.816Z,96260.78
2023-03-13T06:59:35.173Z,96229.75
2023-03-13T07:00:37.109Z,96245.72
2023-03-13T07:01:52.432Z,96242.94
2023-03-13T07:02:54.268Z,96245.28
2023-03-13T07:03:56.420Z,96247.16
2023-03-13T07:04:58.275Z,96225.59
2023-03-13T07:06:00.739Z,96231.41
2023-03-13T07:07:02.810Z,96083.81
2023-03-13T07:08:05.013Z,96243.88
2023-03-13T07:09:06.970Z,96247.56
2023-03-13T07:10:10.433Z,96252.03
2023-03-13T07:11:14.420Z,96245.13
2023-03-13T07:12:16.369Z,96248.28
2023-03-13T07:13:18.461Z,96206.81
2023-03-13T07:14:21.016Z,96212.41
2023-03-13T07:15:23.023Z,96240.56
2023-03-13T07:16:25.298Z,96222.94
2023-03-13T07:17:27.501Z,96129.53
2023-03-13T07:18:29.625Z,96239.19
2023-03-13T07:19:31.907Z,96241.75
2023-03-13T07:20:34.065Z,96237.28
2023-03-13T07:22:00.360Z,96235.13
2023-03-13T07:23:02.375Z,96215.97
2023-03-13T07:24:04.784Z,96236.59
2023-03-13T07:25:07.473Z,96238.09
2023-03-13T07:26:13.766Z,96220.03
2023-03-13T07:27:17.168Z,96194.94
2023-03-13T07:28:19.472Z,96234.22
2023-03-13T07:29:21.569Z,96267.53
2023-03-13T07:30:23.739Z,96225.03
2023-03-13T07:31:25.774Z,96245.13
2023-03-13T07:32:32.003Z,96243.06
2023-03-13T07:33:34.543Z,96244.34
2023-03-13T07:34:47.693Z,96240.41
2023-03-13T07:35:51.290Z,96246.97
2023-03-13T07:36:53.259Z,96240.59
2023-03-13T07:37:55.082Z,96226.38
2023-03-13T07:38:56.992Z,96210.63
2023-03-13T07:39:59.046Z,96247.72
2023-03-13T07:41:01.540Z,96237.34
2023-03-13T07:42:03.590Z,96231.63
2023-03-13T07:43:06.044Z,96229.38
2023-03-13T07:44:08.482Z,96246.47
2023-03-13T07:45:10.927Z,96239.97
2023-03-13T07:46:35.858Z,96239.75
2023-03-13T07:47:38.000Z,96233.72
2023-03-13T07:48:42.831Z,96004.00
2023-03-13T07:49:46.998Z,96235.78
2023-03-13T07:50:51.951Z,96217.13
2023-03-13T07:51:54.096Z,96181.31
2023-03-13T07:52:56.182Z,96230.25
2023-03-13T07:53:58.359Z,96218.81
2023-03-13T07:55:00.570Z,96216.91
2023-03-13T07:56:10.152Z,96206.84
2023-03-13T07:57:12.082Z,96217.31
2023-03-13T07:58:14.227Z,96229.56
2023-03-13T07:59:16.048Z,96254.41
2023-03-13T08:00:18.697Z,96176.13
2023-03-13T08:01:29.078Z,96151.50
2023-03-13T08:02:34.224Z,96182.22
2023-03-13T08:03:36.428Z,96195.84
2023-03-13T08:04:38.296Z,96215.06
2023-03-13T08:05:40.485Z,96205.00
2023-03-13T08:06:42.515Z,96213.94
2023-03-13T08:07:45.665Z,96173.91
2023-03-13T08:08:47.950Z,96203.69
2023-03-13T08:09:49.896Z,96218.28
2023-03-13T08:10:52.217Z,96206.72
2023-03-13T08:11:54.341Z,96193.81
2023-03-13T08:13:32.114Z,96215.13
2023-03-13T08:14:34.261Z,96225.84
2023-03-13T08:15:36.590Z,96173.88
2023-03-13T08:16:38.795Z,96224.03
2023-03-13T08:17:40.781Z,96222.81
2023-03-13T08:18:47.803Z,96211.63
2023-03-13T08:19:49.960Z,96209.25
2023-03-13T08:20:51.875Z,96206.88
2023-03-13T08:21:55.796Z,96209.25
2023-03-13T08:22:58.629Z,96194.69
2023-03-13T08:24:23.846Z,96224.72
2023-03-13T08:25:26.622Z,96160.22
2023-03-13T08:26:30.838Z,96223.72
2023-03-13T08:27:32.784Z,96204.25
2023-03-13T08:28:35.806Z,96260.91
2023-03-13T08:29:37.944Z,96218.97
2023-03-13T08:30:39.893Z,96219.59
2023-03-13T08:32:00.255Z,96074.75
2023-03-13T08:33:02.478Z,96229.00
2023-03-13T08:34:04.571Z,96159.59
2023-03-13T08:35:07.299Z,96199.56
2023-03-13T08:36:17.006Z,96183.94
2023-03-13T08:39:21.080Z,96248.22
2023-03-13T08:40:22.981Z,96218.41
2023-03-13T08:41:27.844Z,96202.25
2023-03-13T08:42:29.578Z,96162.78
2023-03-13T08:43:31.363Z,96213.56
2023-03-13T08:44:33.286Z,96207.50
2023-03-13T08:45:35.376Z,96205.97
2023-03-13T08:46:37.506Z,96162.75
2023-03-13T08:47:39.474Z,96111.59
2023-03-13T08:48:42.046Z,96192.69
2023-03-13T08:49:44.978Z,96211.47
2023-03-13T08:50:46.868Z,95927.41
2023-03-13T08:51:48.847Z,96206.72
2023-03-13T08:52:50.755Z,96205.78
2023-03-13T08:53:53.879Z,96090.41
2023-03-13T08:54:55.792Z,96210.59
2023-03-13T08:55:58.077Z,96196.72
2023-03-13T08:57:00.799Z,96126.88
2023-03-13T08:58:02.717Z,96208.44
2023-03-13T08:59:05.977Z,96112.91
2023-03-13T09:00:08.453Z,96217.28
2023-03-13T09:01:12.883Z,96191.34
2023-03-13T09:02:14.862Z,96116.81
2023-03-13T09:03:17.097Z,96234.69
2023-03-13T09:04:19.668Z,96195.06
2023-03-13T09:05:21.419Z,96082.78
2023-03-13T09:06:23.796Z,96088.81
2023-03-13T09:07:25.725Z,96189.44
2023-03-13T09:08:28.859Z,96211.84
2023-03-13T09:09:30.716Z,96177.22
2023-03-13T09:10:36.308Z,96188.56
2023-03-13T09:11:39.151Z,96209.84
2023-03-13T09:12:41.101Z,96193.38
2023-03-13T09:13:45.323Z,96210.44
2023-03-13T09:14:48.499Z,96182.03
2023-03-13T09:16:05.535Z,96172.66
2023-03-13T09:17:08.074Z,96148.31
2023-03-13T09:18:09.951Z,96211.00
2023-03-13T09:19:11.944Z,96211.47
2023-03-13T09:20:13.738Z,96060.16
2023-03-13T09:21:18.483Z,96071.88
2023-03-13T09:22:20.303Z,96193.47
2023-03-13T09:23:23.344Z,96215.19
2023-03-13T09:24:25.490Z,96208.75
2023-03-13T09:25:27.210Z,96108.44
2023-03-13T09:26:29.433Z,96096.66
2023-03-13T09:27:31.260Z,96215.00
2023-03-13T09:28:34.288Z,96187.81
2023-03-13T09:29:36.493Z,96197.66
2023-03-13T09:30:38.589Z,96071.06
2023-03-13T09:31:40.651Z,96142.53
2023-03-13T09:32:42.525Z,96190.59
2023-03-13T09:33:46.057Z,96204.47
2023-03-13T09:34:47.947Z,96104.53
2023-03-13T09:35:49.769Z,96157.41
2023-03-13T09:36:51.526Z,96053.50
2023-03-13T09:37:53.422Z,96191.69
2023-03-13T09:38:57.770Z,96190.78
2023-03-13T09:39:59.810Z,96174.25
2023-03-13T09:41:11.982Z,96175.22
2023-03-13T09:42:22.480Z,96188.69
2023-03-13T09:44:06.866Z,96179.94
2023-03-13T09:45:33.270Z,96157.03
2023-03-13T09:46:53.744Z,96193.44
2023-03-13T09:48:02.420Z,96042.69
2023-03-13T09:49:40.770Z,96190.06
2023-03-13T09:50:50.826Z,96127.88
2023-03-13T09:52:15.781Z,96179.97
2023-03-13T09:53:34.501Z,96199.56
2023-03-13T09:54:46.163Z,96135.22
2023-03-13T09:55:48.262Z,96174.00
2023-03-13T09:56:55.582Z,96146.84
2023-03-13T09:58:06.543Z,96037.16
2023-03-13T09:59:24.431Z,96041.94
2023-03-13T10:00:39.676Z,96168.44
2023-03-13T10:01:44.306Z,96032.25
2023-03-13T10:02:53.276Z,96139.69
2023-03-13T10:04:31.401Z,96167.13
2023-03-13T10:05:34.146Z,96129.63
2023-03-13T10:06:41.366Z,96167.34
2023-03-13T10:07:43.730Z,96159.53
2023-03-13T10:08:45.759Z,96058.28
2023-03-13T10:09:47.556Z,96143.97
2023-03-13T10:10:56.027Z,96164.31
2023-03-13T10:12:24.780Z,96154.41
2023-03-13T10:13:48.266Z,96161.94
2023-03-13T10:15:37.112Z,96153.22
2023-03-13T10:17:02.897Z,96153.31
2023-03-13T10:18:15.841Z,96033.03
2023-03-13T10:19:28.045Z,96150.81
2023-03-13T10:20:34.590Z,96078.25
2023-03-13T10:21:37.375Z,96056.19
2023-03-13T10:22:40.267Z,96139.06
2023-03-13T10:23:51.710Z,96140.63
2023-03-13T10:25:04.758Z,96136.38
2023-03-13T10:26:15.766Z,95962.63
2023-03-13T10:27:18.115Z,96055.34
2023-03-13T10:28:19.933Z,96130.13
2023-03-13T10:29:28.082Z,95983.19
2023-03-13T10:30:35.030Z,96018.06
2023-03-13T10:31:38.084Z,96132.34
2023-03-13T10:32:40.100Z,96105.59
2023-03-13T10:33:42.937Z,96060.72
2023-03-13T10:34:59.890Z,96119.44
2023-03-13T10:36:10.909Z,96114.53
2023-03-13T10:37:15.872Z,96098.69
2023-03-13T10:38:22.820Z,96108.31
2023-03-13T10:39:29.151Z,96100.88
2023-03-13T10:40:31.024Z,96049.09
2023-03-13T10:41:37.445Z,96109.75
2023-03-13T10:42:44.554Z,96037.84
2023-03-13T10:43:55.120Z,96095.16
2023-03-13T10:44:59.710Z,96107.13
2023-03-13T10:46:01.622Z,96084.69
2023-03-13T10:47:04.190Z,96096.56
2023-03-13T10:48:18.664Z,95973.97
2023-03-13T10:49:23.282Z,95879.84
2023-03-13T10:50:27.652Z,96105.50
2023-03-13T10:51:40.052Z,96101.75
2023-03-13T10:52:45.289Z,96085.47
2023-03-13T10:53:47.002Z,96093.03
2023-03-13T10:54:48.967Z,96083.78
2023-03-13T10:55:54.098Z,96044.56
2023-03-13T10:57:17.625Z,96086.69
2023-03-13T10:58:48.259Z,96052.84
2023-03-13T10:59:52.132Z,96076.66
2023-03-13T11:01:18.285Z,95988.22
2023-03-13T11:02:39.032Z,96055.19
2023-03-13T11:03:40.979Z,96064.41
2023-03-13T11:04:42.801Z,96096.34
2023-03-13T11:05:54.055Z,96070.56
2023-03-13T11:07:06.810Z,96067.56
2023-03-13T11:08:19.955Z,96058.94
2023-03-13T11:09:21.762Z,96084.97
2023-03-13T11:10:30.584Z,96074.94
2023-03-13T11:11:45.002Z,96071.38
2023-03-13T11:12:49.335Z,96075.81
2023-03-13T11:13:51.135Z,95939.81
2023-03-13T11:15:01.257Z,96066.75
2023-03-13T11:16:11.954Z,96072.31
2023-03-13T11:17:41.047Z,96068.50
2023-03-13T11:19:19.990Z,96065.19
2023-03-13T11:20:33.163Z,96069.84
2023-03-13T11:21:46.877Z,96058.16
2023-03-13T11:22:55.564Z,96061.78
2023-03-13T11:24:19.325Z,96042.03
2023-03-13T11:25:36.169Z,96049.75
2023-03-13T11:27:02.010Z,96016.72
2023-03-13T11:28:14.831Z,96040.94
2023-03-13T11:29:46.683Z,95978.47
2023-03-13T11:31:03.635Z,96010.47
2023-03-13T11:32:20.198Z,96062.22
2023-03-13T11:33:49.067Z,96040.81
2023-03-13T11:34:57.517Z,96039.59
2023-03-13T11:36:08.342Z,96026.06
2023-03-13T11:37:14.066Z,96018.34
2023-03-13T11:38:42.736Z,95988.31
2023-03-13T11:40:10.561Z,96049.47
2023-03-13T11:41:34.991Z,96027.88
2023-03-13T11:42:48.759Z,96024.28
2023-03-13T11:44:19.828Z,96010.94
2023-03-13T11:45:33.763Z,96033.25
2023-03-13T11:46:44.715Z,96013.97
2023-03-13T11:48:03.782Z,95885.34
2023-03-13T11:49:41.665Z,96008.34
2023-03-13T11:50:58.981Z,96006.78
2023-03-13T11:52:16.151Z,96029.38
2023-03-13T11:53:34.401Z,96001.13
2023-03-13T11:55:02.271Z,95996.78
2023-03-13T11:56:14.470Z,95997.00
2023-03-13T11:57:27.369Z,95962.78
2023-03-13T11:58:53.380Z,95951.00
2023-03-13T12:00:10.210Z,96005.63
2023-03-13T12:01:17.574Z,95974.22
2023-03-13T12:02:25.531Z,96002.25
2023-03-13T12:03:33.210Z,95981.44
2023-03-13T12:04:44.558Z,95940.91
2023-03-13T12:05:56.358Z,95951.19
2023-03-13T12:07:19.121Z,95903.66
2023-03-13T12:08:43.837Z,95968.91
2023-03-13T12:10:03.870Z,95967.00
2023-03-13T12:11:22.375Z,95947.38
2023-03-13T12:12:57.029Z,95985.81
2023-03-13T12:14:15.262Z,95923.06
2023-03-13T12:15:35.791Z,95970.78
2023-03-13T12:16:41.452Z,95947.13
2023-03-13T12:18:00.874Z,95962.91
2023-03-13T12:19:02.719Z,95972.19
2023-03-13T12:20:44.336Z,95964.72
2023-03-13T12:21:50.795Z,95959.75
2023-03-13T12:23:15.811Z,95896.91
2023-03-13T12:24:23.593Z,95950.63
2023-03-13T12:25:48.056Z,95957.13
2023-03-13T12:27:05.949Z,95951.94
2023-03-13T12:28:26.358Z,95953.53
2023-03-13T12:29:42.093Z,95968.03
2023-03-13T12:30:49.133Z,95923.41
2023-03-13T12:32:00.090Z,95957.88
2023-03-13T12:33:28.596Z,95951.72
2023-03-13T12:34:39.276Z,95943.69
2023-03-13T12:35:46.668Z,95938.78
2023-03-13T12:37:05.403Z,95949.91
2023-03-13T12:38:28.662Z,95952.97
2023-03-13T12:39:49.916Z,95811.81
2023-03-13T12:41:16.313Z,95895.53
2023-03-13T12:42:20.870Z,95957.06
2023-03-13T12:43:29.607Z,95944.63
2023-03-13T12:44:32.334Z,95922.34
2023-03-13T12:45:46.109Z,95921.22
2023-03-13T12:46:58.230Z,95889.84
2023-03-13T12:48:46.236Z,95945.09
2023-03-13T12:50:07.586Z,95944.06
2023-03-13T12:51:34.873Z,95938.84
2023-03-13T12:53:04.654Z,95953.47
2023-03-13T12:54:25.376Z,95948.66
2023-03-13T12:56:04.387Z,95648.97
2023-03-13T12:57:08.837Z,95948.41
2023-03-13T12:58:13.685Z,95955.56
2023-03-13T12:59:35.215Z,95924.44
2023-03-13T13:00:40.263Z,95945.63
2023-03-13T13:01:49.449Z,95951.25
2023-03-13T13:03:14.530Z,95919.09
2023-03-13T13:04:21.459Z,95942.94
2023-03-13T13:05:23.630Z,95940.72
2023-03-13T13:06:28.253Z,95940.78
2023-03-13T13:07:33.276Z,95926.84
2023-03-13T13:08:39.161Z,95933.09
2023-03-13T13:10:09.450Z,95922.47
2023-03-13T13:11:37.190Z,95920.63
2023-03-13T13:12:41.425Z,95937.41
2023-03-13T13:13:43.261Z,95929.66
2023-03-13T13:14:47.948Z,95854.19
2023-03-13T13:16:11.546Z,95913.19
2023-03-13T13:17:16.642Z,95947.53
2023-03-13T13:18:29.830Z,95929.63
2023-03-13T13:19:40.528Z,95943.16